Terminal Aerodrome Forecast
Issued by NWS Charleston, SC

Home | Current Version | Previous Version | Text Only | Print | Product List | Glossary On
Versions: 1 2 3 4 5 6 7 8 9 10 11 12 13 14 15 16 17 18 19 20 21 22 23 24 25 26 27 28 29 30 31 32 33 34 35 36 37 38 39 40
000
FTUS42 KCHS 250100 CCA
TAFSAV
TAF COR
KSAV 250149Z 2502/2524 20010KT P6SM SCT006 SCT025 OVC080
      WS010/22035KT
      TEMPO 2502/2504 6SM -SHRA BKN006 OVC012
     FM250400 26015G25KT P6SM VCSH SCT007 BKN015 OVC025
      TEMPO 2504/2508 BKN007 OVC012
     FM250800 28010KT P6SM SCT025 BKN080
     FM251400 29010G15KT P6SM SCT025 BKN150=

USA.gov is the U.S. government's official web portal to all federal, state and local government web resources and services.